DW6111 Rossendale UK current weather conditions

sailwx.info

Wind from 068 at 1 knots gusting 9

Air temperature 12.8° C
Dewpoint 10.5° C

Last reported at 2019-Jun-16 23:01 UTC.
Time now 2019-Jun-17 04:43 UTC

Location: N 53°40' W 002°10'.
View on Google Maps.

See reports from other nearby stations

  
Tides and Currents Weather Stations Pressure Air Temp Water Temp Dewpoint Dewpoint Depression Visibility Wind Speed Wind Dir Waves Ship Positions
date/time (UTC)wind fromknots sea level pressurealtimeterstation pressurevisibilityair tempwater tempwave heightnotes
2019-Jun-16 23:01 068 1 gusting 9 12.8
2019-Jun-16 22:46 066 1 gusting 7 12.8
2019-Jun-16 22:30 075 3 gusting 8 12.8
2019-Jun-16 22:15 090 3 gusting 8 12.8
2019-Jun-16 22:00 113 5 gusting 13 13.3
2019-Jun-16 21:45 072 3 gusting 9 13.3
2019-Jun-16 21:30 133 2 gusting 8 13.3
2019-Jun-16 21:15 069 2 gusting 7 13.3
2019-Jun-16 21:00 086 3 gusting 9 13.3
2019-Jun-16 20:45 007 2 gusting 5 13.3
2019-Jun-16 20:30 091 2 gusting 6 13.3
2019-Jun-16 20:15 045 1 gusting 6 13.3
2019-Jun-16 20:00 090 2 gusting 6 13.3
2019-Jun-16 19:45 065 3 gusting 7 13.3
2019-Jun-16 19:30 071 1 gusting 5 12.8
2019-Jun-16 19:15 096 1 gusting 4 12.8
2019-Jun-16 18:45 098 1 gusting 4 12.8
2019-Jun-16 18:30 103 1 gusting 5 12.8
2019-Jun-16 18:15 064 0 gusting 3 12.8
2019-Jun-16 18:02 082 0 gusting 3 12.8
2019-Jun-16 17:46 046 1 gusting 4 13.3
2019-Jun-16 17:31 330 0 gusting 3 13.3
2019-Jun-16 17:17 348 1 gusting 6 13.9
2019-Jun-16 17:01 031 1 gusting 9 15.0
2019-Jun-16 16:47 115 0 gusting 3 15.0
2019-Jun-16 16:32 102 1 gusting 7 15.6
2019-Jun-16 16:16 264 1 gusting 6 15.6
2019-Jun-16 16:02 085 1 gusting 6 16.1
2019-Jun-16 15:46 285 1 gusting 8 16.7
2019-Jun-16 15:31 272 2 gusting 10 16.1
2019-Jun-16 15:16 074 1 gusting 6 15.6
2019-Jun-16 15:01 038 1 gusting 6 15.6
2019-Jun-16 14:46 109 3 gusting 8 14.4
2019-Jun-16 14:32 034 2 gusting 7 15.0
2019-Jun-16 14:16 085 4 gusting 8 15.6
2019-Jun-16 14:01 081 4 gusting 8 15.0
2019-Jun-16 13:48 045 1 gusting 6 13.9
2019-Jun-16 13:16 104 2 gusting 5 15.0
2019-Jun-16 13:00 128 3 gusting 6 15.0
2019-Jun-16 12:45 101 14.4
2019-Jun-16 12:31 084 0 gusting 6 14.4
2019-Jun-16 12:15 127 1 gusting 6 14.4
2019-Jun-16 12:00 089 3 gusting 9 14.4
2019-Jun-16 11:45 062 2 gusting 8 13.9
2019-Jun-16 11:31 079 3 gusting 7 13.9
2019-Jun-16 11:15 063 2 gusting 6 13.3
2019-Jun-16 11:00 095 2 gusting 9 12.8
2019-Jun-16 10:45 005 2 gusting 8 12.2
2019-Jun-16 10:30 046 1 gusting 6 11.7
2019-Jun-16 10:15 051 2 gusting 6 11.7
2019-Jun-16 10:00 092 0 gusting 5 11.1
2019-Jun-16 09:45 077 1 gusting 5 10.6
2019-Jun-16 09:30 083 0 gusting 2 10.6
2019-Jun-16 09:17 085 10.0
2019-Jun-16 09:02 085 0 gusting 4 10.0
2019-Jun-16 08:47 089 10.0
2019-Jun-16 08:31 069 0 gusting 2 10.0
2019-Jun-16 08:16 120 0 gusting 4 10.0
2019-Jun-16 08:02 107 0 gusting 4 10.0
2019-Jun-16 07:46 096 9.4
2019-Jun-16 07:32 087 9.4
2019-Jun-16 07:16 060 0 gusting 4 8.9
2019-Jun-16 07:01 015 8.9
2019-Jun-16 06:46 079 8.9
2019-Jun-16 06:31 144 8.3
2019-Jun-16 06:16 132 8.3
2019-Jun-16 06:01 134 7.8
2019-Jun-16 05:47 138 7.8
2019-Jun-16 05:31 138 7.2
2019-Jun-16 05:15 029 7.2
2019-Jun-16 05:01 029 7.2
2019-Jun-16 04:45 029 7.2
2019-Jun-16 04:30 328 6.7
2019-Jun-16 04:15 328 6.1
2019-Jun-16 04:00 328 6.1
2019-Jun-16 03:45 329 6.1
2019-Jun-16 03:31 329 6.1
2019-Jun-16 03:16 328 6.1
2019-Jun-16 03:00 329 6.1
2019-Jun-16 02:46 328 6.1
2019-Jun-16 02:31 328 6.1
2019-Jun-16 02:15 329 6.7
2019-Jun-16 02:01 328 6.1
2019-Jun-16 01:45 328 6.1
2019-Jun-16 01:31 329 6.1
2019-Jun-16 01:15 328 6.1
2019-Jun-16 01:00 328 5.6
2019-Jun-16 00:46 328 5.6
2019-Jun-16 00:30 329 5.6
2019-Jun-16 00:15 329 5.6
2019-Jun-16 00:00 329 6.1
2019-Jun-15 23:45 328 6.7
2019-Jun-15 23:30 328 6.7
2019-Jun-15 23:15 328 7.2
2019-Jun-15 23:00 337 7.8
2019-Jun-15 22:46 337 7.8
2019-Jun-15 22:32 337 8.3
2019-Jun-15 22:16 337 8.3
2019-Jun-15 22:01 337 8.3
2019-Jun-15 21:46 338 7.8
2019-Jun-15 21:32 337 7.8
2019-Jun-15 21:16 337 7.8
2019-Jun-15 21:02 337 7.8
2019-Jun-15 20:46 337 8.3
2019-Jun-15 20:31 337 8.3
2019-Jun-15 20:16 337 8.9
2019-Jun-15 20:00 337 9.4
2019-Jun-15 19:46 337 10.6
2019-Jun-15 19:31 337 10.6
2019-Jun-15 19:15 337 10.6
2019-Jun-15 19:01 337 10.6
2019-Jun-15 18:46 340 11.1
2019-Jun-15 18:31 339 11.1
2019-Jun-15 18:15 340 10.6
2019-Jun-15 18:00 340 10.6
2019-Jun-15 17:45 341 10.6
2019-Jun-15 17:31 340 10.6
2019-Jun-15 17:15 307 10.6
2019-Jun-15 17:00 266 10.6
2019-Jun-15 16:45 209 10.0
2019-Jun-15 16:31 214 10.6
2019-Jun-15 16:15 039 10.6
2019-Jun-15 16:00 310 10.6
2019-Jun-15 15:45 281 11.1
2019-Jun-15 15:31 303 11.1
2019-Jun-15 15:15 083 11.1
2019-Jun-15 15:00 278 11.7
2019-Jun-15 14:45 052 11.1
2019-Jun-15 14:30 357 11.1
2019-Jun-15 14:15 094 11.1
2019-Jun-15 14:01 115 10.6
2019-Jun-15 13:45 068 0 gusting 2 11.1
2019-Jun-15 13:30 299 0 gusting 4 11.1
2019-Jun-15 13:15 227 0 gusting 5 11.7
2019-Jun-15 13:00 057 0 gusting 5 12.2
2019-Jun-15 12:45 060 1 gusting 9 13.3
2019-Jun-15 12:30 131 1 gusting 7 13.9
2019-Jun-15 12:15 075 2 gusting 6 13.9
2019-Jun-15 12:00 068 4 gusting 9 13.9
2019-Jun-15 11:45 086 2 gusting 7 13.3
2019-Jun-15 11:30 056 2 gusting 8 13.3
2019-Jun-15 11:15 102 2 gusting 8 13.9
2019-Jun-15 11:00 046 2 gusting 8 13.3
2019-Jun-15 10:45 096 1 gusting 7 12.8
2019-Jun-15 10:30 002 2 gusting 6 12.8
2019-Jun-15 10:15 117 2 gusting 8 12.2
2019-Jun-15 10:00 063 2 gusting 7 12.2
2019-Jun-15 09:46 080 1 gusting 6 11.7
2019-Jun-15 09:31 097 3 gusting 7 11.7
2019-Jun-15 09:16 063 3 gusting 6 11.7
2019-Jun-15 09:01 060 3 gusting 9 11.7
2019-Jun-15 08:46 103 2 gusting 8 11.7
2019-Jun-15 08:31 084 1 gusting 6 11.7
2019-Jun-15 08:16 137 1 gusting 7 11.7
2019-Jun-15 08:02 113 2 gusting 6 12.2
2019-Jun-15 07:47 084 1 gusting 6 11.7
2019-Jun-15 07:31 058 1 gusting 6 11.7
2019-Jun-15 07:16 063 1 gusting 6 11.1
2019-Jun-15 07:01 107 1 gusting 8 11.1
2019-Jun-15 06:46 110 2 gusting 6 10.6
2019-Jun-15 06:31 046 2 gusting 6 10.0
2019-Jun-15 06:16 098 10.0
2019-Jun-15 06:01 037 9.4
2019-Jun-15 05:47 085 9.4
2019-Jun-15 05:31 092 0 gusting 5 9.4
2019-Jun-15 05:16 080 9.4
2019-Jun-15 05:01 086 9.4
2019-Jun-15 04:45 092 9.4
2019-Jun-15 04:31 077 0 gusting 3 9.4
2019-Jun-15 04:15 107 9.4
2019-Jun-15 04:01 096 9.4